createdAt,value
2017-01-25T00:00:26.670Z,18.88
2017-01-25T00:01:35.349Z,18.9
2017-01-25T00:02:45.209Z,18.82
2017-01-25T00:03:54.587Z,18.92
2017-01-25T00:05:03.270Z,18.94
2017-01-25T00:06:12.341Z,18.91
2017-01-25T00:07:21.016Z,18.91
2017-01-25T00:08:30.470Z,18.9
2017-01-25T00:09:39.451Z,18.82
2017-01-25T00:10:48.520Z,18.92
2017-01-25T00:11:57.990Z,18.87
2017-01-25T00:13:07.465Z,18.94
2017-01-25T00:14:16.539Z,18.9
2017-01-25T00:15:25.486Z,18.92
2017-01-25T00:16:34.947Z,18.94
2017-01-25T00:17:44.021Z,18.91
2017-01-25T00:18:52.712Z,18.87
2017-01-25T00:20:01.421Z,18.95
2017-01-25T00:21:10.591Z,18.8
2017-01-25T00:22:19.356Z,18.94
2017-01-25T00:23:28.041Z,18.98
2017-01-25T00:24:37.511Z,18.92
2017-01-25T00:25:46.587Z,18.84
2017-01-25T00:26:56.347Z,18.82
2017-01-25T00:28:06.228Z,18.85
2017-01-25T00:29:15.308Z,18.92
2017-01-25T00:30:23.991Z,18.87
2017-01-25T00:31:32.681Z,18.88
2017-01-25T00:32:41.459Z,18.81
2017-01-25T00:33:50.915Z,18.82
2017-01-25T00:34:59.668Z,18.87
2017-01-25T00:36:08.752Z,18.82
2017-01-25T00:37:18.215Z,18.88
2017-01-25T00:38:27.646Z,18.87
2017-01-25T00:39:37.098Z,18.84
2017-01-25T00:40:45.783Z,18.9
2017-01-25T00:41:54.468Z,18.88
2017-01-25T00:43:04.238Z,18.85
2017-01-25T00:44:13.461Z,18.87
2017-01-25T00:45:23.316Z,18.82
2017-01-25T00:46:32.037Z,18.81
2017-01-25T00:47:41.901Z,18.81
2017-01-25T00:48:50.979Z,18.75
2017-01-25T00:50:00.747Z,18.75
2017-01-25T00:51:10.596Z,18.84
2017-01-25T00:52:19.267Z,18.76
2017-01-25T00:53:29.105Z,18.8
2017-01-25T00:54:38.561Z,18.82
2017-01-25T00:55:48.330Z,18.75
2017-01-25T00:56:57.782Z,18.76
2017-01-25T00:58:06.858Z,18.8
2017-01-25T00:59:15.956Z,18.84
2017-01-25T01:00:25.038Z,18.82
2017-01-25T01:01:33.878Z,18.8
2017-01-25T01:02:42.561Z,18.78
2017-01-25T01:03:52.401Z,18.78
2017-01-25T01:05:01.089Z,18.78
2017-01-25T01:06:09.766Z,18.78
2017-01-25T01:07:19.168Z,18.78
2017-01-25T01:08:28.638Z,18.7
2017-01-25T01:09:37.703Z,18.7
2017-01-25T01:10:46.790Z,18.7
2017-01-25T01:11:55.876Z,18.75
2017-01-25T01:13:05.256Z,18.78
2017-01-25T01:14:14.324Z,18.7
2017-01-25T01:15:23.029Z,18.7
2017-01-25T01:16:32.499Z,18.69
2017-01-25T01:17:41.189Z,18.75
2017-01-25T01:18:50.048Z,18.7
2017-01-25T01:19:59.512Z,18.73
2017-01-25T01:21:09.372Z,18.69
2017-01-25T01:22:18.045Z,18.7
2017-01-25T01:23:27.115Z,18.66
2017-01-25T01:24:36.139Z,18.67
2017-01-25T01:25:44.830Z,18.69
2017-01-25T01:26:54.295Z,18.69
2017-01-25T01:28:03.756Z,18.73
2017-01-25T01:29:12.851Z,18.75
2017-01-25T01:30:22.197Z,18.67
2017-01-25T01:31:31.289Z,18.73
2017-01-25T01:32:40.382Z,18.69
2017-01-25T01:33:49.446Z,18.76
2017-01-25T01:34:58.927Z,18.72
2017-01-25T01:36:09.035Z,18.75
2017-01-25T01:37:18.503Z,18.72
2017-01-25T01:38:27.959Z,18.67
2017-01-25T01:39:37.431Z,18.73
2017-01-25T01:40:47.307Z,18.7
2017-01-25T01:41:56.331Z,18.67
2017-01-25T01:43:05.786Z,18.73
2017-01-25T01:44:14.870Z,18.75
2017-01-25T01:45:24.320Z,18.67
2017-01-25T01:46:33.392Z,18.7
2017-01-25T01:47:42.770Z,18.72
2017-01-25T01:48:51.446Z,18.7
2017-01-25T01:50:00.518Z,18.8
2017-01-25T01:51:09.977Z,18.7
2017-01-25T01:52:19.053Z,18.7
2017-01-25T01:53:28.661Z,18.7
2017-01-25T01:54:37.741Z,18.73
2017-01-25T01:55:46.456Z,18.73
2017-01-25T01:56:55.156Z,18.69
2017-01-25T01:58:03.852Z,18.66
2017-01-25T01:59:13.245Z,18.66
2017-01-25T02:00:23.085Z,18.7
2017-01-25T02:01:32.161Z,18.66
2017-01-25T02:02:41.239Z,18.69
2017-01-25T02:03:49.965Z,18.7
2017-01-25T02:04:59.732Z,18.67
2017-01-25T02:06:08.809Z,18.62
2017-01-25T02:07:17.887Z,18.73
2017-01-25T02:08:26.575Z,18.7
2017-01-25T02:09:35.649Z,18.72
2017-01-25T02:10:45.068Z,18.72
2017-01-25T02:11:53.741Z,18.72
2017-01-25T02:13:02.812Z,18.65
2017-01-25T02:14:11.888Z,18.63
2017-01-25T02:15:21.358Z,18.65
2017-01-25T02:16:30.634Z,18.65
2017-01-25T02:17:39.706Z,18.66
2017-01-25T02:18:48.400Z,18.6
2017-01-25T02:19:57.863Z,18.73
2017-01-25T02:21:07.391Z,18.62
2017-01-25T02:22:16.729Z,18.62
2017-01-25T02:23:25.801Z,18.57
2017-01-25T02:24:34.528Z,18.76
2017-01-25T02:25:43.588Z,18.6
2017-01-25T02:26:52.282Z,18.72
2017-01-25T02:28:01.511Z,18.58
2017-01-25T02:29:10.205Z,18.62
2017-01-25T02:30:19.702Z,18.66
2017-01-25T02:31:28.420Z,18.67
2017-01-25T02:32:37.104Z,18.58
2017-01-25T02:33:46.342Z,18.67
2017-01-25T02:34:55.019Z,18.65
2017-01-25T02:36:04.881Z,18.66
2017-01-25T02:37:13.582Z,18.65
2017-01-25T02:38:22.680Z,18.67
2017-01-25T02:39:32.458Z,18.66
2017-01-25T02:40:41.536Z,18.7
2017-01-25T02:41:50.253Z,18.62
2017-01-25T02:42:59.361Z,18.57
2017-01-25T02:44:08.437Z,18.62
2017-01-25T02:45:17.926Z,18.69
2017-01-25T02:46:27.789Z,18.67
2017-01-25T02:47:36.471Z,18.65
2017-01-25T02:48:45.568Z,18.57
2017-01-25T02:49:55.016Z,18.57
2017-01-25T02:51:03.868Z,18.6
2017-01-25T02:52:12.944Z,18.57
2017-01-25T02:53:22.412Z,18.6
2017-01-25T02:54:31.470Z,18.57
2017-01-25T02:55:40.161Z,18.69
2017-01-25T02:56:49.386Z,18.6
2017-01-25T02:57:58.859Z,18.62
2017-01-25T02:59:08.714Z,18.55
2017-01-25T03:00:17.405Z,18.58
2017-01-25T03:01:26.078Z,18.52
2017-01-25T03:02:35.280Z,18.52
2017-01-25T03:03:43.986Z,18.57
2017-01-25T03:04:53.457Z,18.6
2017-01-25T03:06:02.932Z,18.55
2017-01-25T03:07:12.015Z,18.57
2017-01-25T03:08:21.732Z,18.52
2017-01-25T03:09:30.413Z,18.63
2017-01-25T03:10:39.877Z,18.55
2017-01-25T03:11:48.973Z,18.58
2017-01-25T03:12:57.647Z,18.55
2017-01-25T03:14:06.873Z,18.52
2017-01-25T03:15:15.577Z,18.57
2017-01-25T03:16:24.658Z,18.57
2017-01-25T03:17:33.733Z,18.52
2017-01-25T03:18:42.437Z,18.5
2017-01-25T03:19:51.475Z,18.52
2017-01-25T03:21:00.951Z,18.55
2017-01-25T03:22:09.634Z,18.6
2017-01-25T03:23:18.703Z,18.52
2017-01-25T03:24:27.389Z,18.52
2017-01-25T03:25:37.013Z,18.58
2017-01-25T03:26:47.266Z,18.5
2017-01-25T03:27:56.722Z,18.55
2017-01-25T03:29:05.412Z,18.55
2017-01-25T03:30:14.482Z,18.54
2017-01-25T03:31:23.886Z,18.5
2017-01-25T03:32:33.390Z,18.54
2017-01-25T03:33:43.247Z,18.54
2017-01-25T03:34:52.318Z,18.44
2017-01-25T03:36:02.174Z,18.55
2017-01-25T03:37:12.307Z,18.52
2017-01-25T03:38:21.367Z,18.54
2017-01-25T03:39:30.439Z,18.54
2017-01-25T03:40:39.506Z,18.52
2017-01-25T03:41:48.592Z,18.52
2017-01-25T03:42:57.749Z,18.52
2017-01-25T03:44:06.854Z,18.54
2017-01-25T03:45:16.333Z,18.52
2017-01-25T03:46:26.197Z,18.55
2017-01-25T03:47:35.669Z,18.5
2017-01-25T03:48:44.511Z,18.55
2017-01-25T03:49:53.579Z,18.52
2017-01-25T03:51:02.663Z,18.47
2017-01-25T03:52:11.345Z,18.5
2017-01-25T03:53:20.817Z,18.48
2017-01-25T03:54:30.592Z,18.51
2017-01-25T03:55:39.670Z,18.52
2017-01-25T03:56:48.354Z,18.48
2017-01-25T03:57:57.416Z,18.42
2017-01-25T03:59:06.099Z,18.52
2017-01-25T04:00:15.923Z,18.5
2017-01-25T04:01:24.612Z,18.51
2017-01-25T04:02:33.722Z,18.45
2017-01-25T04:03:42.831Z,18.45
2017-01-25T04:04:53.075Z,18.5
2017-01-25T04:06:02.791Z,18.44
2017-01-25T04:07:11.890Z,18.44
2017-01-25T04:08:20.583Z,18.42
2017-01-25T04:09:29.261Z,18.42
2017-01-25T04:10:38.336Z,18.51
2017-01-25T04:11:47.111Z,18.52
2017-01-25T04:12:56.949Z,18.45
2017-01-25T04:14:06.026Z,18.47
2017-01-25T04:15:15.495Z,18.45
2017-01-25T04:16:24.981Z,18.45
2017-01-25T04:17:34.369Z,18.48
2017-01-25T04:18:43.834Z,18.44
2017-01-25T04:19:53.337Z,18.45
2017-01-25T04:21:02.448Z,18.5
2017-01-25T04:22:11.528Z,18.41
2017-01-25T04:23:21.307Z,18.44
2017-01-25T04:24:30.377Z,18.44
2017-01-25T04:25:39.433Z,18.41
2017-01-25T04:26:48.891Z,18.51
2017-01-25T04:27:58.354Z,18.51
2017-01-25T04:29:07.324Z,18.47
2017-01-25T04:30:16.004Z,18.44
2017-01-25T04:31:25.083Z,18.48
2017-01-25T04:32:34.165Z,18.47
2017-01-25T04:33:42.845Z,18.45
2017-01-25T04:34:52.260Z,18.42
2017-01-25T04:36:01.373Z,18.42
2017-01-25T04:37:10.442Z,18.51
2017-01-25T04:38:19.553Z,18.45
2017-01-25T04:39:29.011Z,18.37
2017-01-25T04:40:38.334Z,18.47
2017-01-25T04:41:47.801Z,18.41
2017-01-25T04:42:56.862Z,18.41
2017-01-25T04:44:06.327Z,18.37
2017-01-25T04:45:15.006Z,18.42
2017-01-25T04:46:24.999Z,18.47
2017-01-25T04:47:34.064Z,18.45
2017-01-25T04:48:43.135Z,18.44
2017-01-25T04:49:52.965Z,18.41
2017-01-25T04:51:02.057Z,18.44
2017-01-25T04:52:11.896Z,18.42
2017-01-25T04:53:20.959Z,18.36
2017-01-25T04:54:30.028Z,18.45
2017-01-25T04:55:38.710Z,18.44
2017-01-25T04:56:48.165Z,18.33
2017-01-25T04:57:57.496Z,18.41
2017-01-25T04:59:06.954Z,18.35
2017-01-25T05:00:16.413Z,18.37
2017-01-25T05:01:25.141Z,18.47
2017-01-25T05:02:33.831Z,18.35
2017-01-25T05:03:42.677Z,18.41
2017-01-25T05:04:52.152Z,18.33
2017-01-25T05:06:01.606Z,18.35
2017-01-25T05:07:10.695Z,18.39
2017-01-25T05:08:20.570Z,18.44
2017-01-25T05:09:30.376Z,18.44
2017-01-25T05:10:40.233Z,18.42
2017-01-25T05:11:49.706Z,18.42
2017-01-25T05:12:58.779Z,18.33
2017-01-25T05:14:07.864Z,18.44
2017-01-25T05:15:16.811Z,18.44
2017-01-25T05:16:25.903Z,18.42
2017-01-25T05:17:35.360Z,18.39
2017-01-25T05:18:45.243Z,18.37
2017-01-25T05:19:54.347Z,18.42
2017-01-25T05:21:03.393Z,18.32
2017-01-25T05:22:12.087Z,18.39
2017-01-25T05:23:21.166Z,18.35
2017-01-25T05:24:30.232Z,18.35
2017-01-25T05:25:39.311Z,18.42
2017-01-25T05:26:48.890Z,18.32
2017-01-25T05:27:57.577Z,18.35
2017-01-25T05:29:06.314Z,18.36
2017-01-25T05:30:15.770Z,18.39
2017-01-25T05:31:25.243Z,18.37
2017-01-25T05:32:34.567Z,18.36
2017-01-25T05:33:43.645Z,18.39
2017-01-25T05:34:52.723Z,18.39
2017-01-25T05:36:02.205Z,18.42
2017-01-25T05:37:10.905Z,18.41
2017-01-25T05:38:20.458Z,18.48
2017-01-25T05:39:29.525Z,18.51
2017-01-25T05:40:38.994Z,18.5
2017-01-25T05:41:48.075Z,18.6
2017-01-25T05:42:56.750Z,18.65
2017-01-25T05:44:06.577Z,18.66
2017-01-25T05:45:15.641Z,18.82
2017-01-25T05:46:24.313Z,18.85
2017-01-25T05:47:33.387Z,18.9
2017-01-25T05:48:42.059Z,18.95
2017-01-25T05:49:51.472Z,18.95
2017-01-25T05:51:00.559Z,19.06
2017-01-25T05:52:09.637Z,19.08
2017-01-25T05:53:19.099Z,19.14
2017-01-25T05:54:27.826Z,19.23
2017-01-25T05:55:37.421Z,19.29
2017-01-25T05:56:46.111Z,19.36
2017-01-25T05:57:54.786Z,19.4
2017-01-25T05:59:03.474Z,19.37
2017-01-25T06:00:12.183Z,19.48
2017-01-25T06:01:21.645Z,19.48
2017-01-25T06:02:30.369Z,19.56
2017-01-25T06:03:40.217Z,19.62
2017-01-25T06:04:49.337Z,19.59
2017-01-25T06:05:58.799Z,19.66
2017-01-25T06:07:08.635Z,19.73
2017-01-25T06:08:17.720Z,19.81
2017-01-25T06:09:26.405Z,19.76
2017-01-25T06:10:35.898Z,19.86
2017-01-25T06:11:45.004Z,19.95
2017-01-25T06:12:54.049Z,19.95
2017-01-25T06:14:02.729Z,20.03
2017-01-25T06:15:11.822Z,20.05
2017-01-25T06:16:20.923Z,20.06
2017-01-25T06:17:30.001Z,20.11
2017-01-25T06:18:39.169Z,20.17
2017-01-25T06:19:48.259Z,20.21
2017-01-25T06:20:56.952Z,20.24
2017-01-25T06:22:06.014Z,20.33
2017-01-25T06:23:15.474Z,20.38
2017-01-25T06:24:24.695Z,20.39
2017-01-25T06:25:33.379Z,20.38
2017-01-25T06:26:42.860Z,20.41
2017-01-25T06:27:51.538Z,20.42
2017-01-25T06:29:00.628Z,20.54
2017-01-25T06:30:10.530Z,20.62
2017-01-25T06:31:19.195Z,20.7
2017-01-25T06:32:28.261Z,20.69
2017-01-25T06:33:38.109Z,20.7
2017-01-25T06:34:47.183Z,20.74
2017-01-25T06:35:56.129Z,20.74
2017-01-25T06:37:05.197Z,20.88
2017-01-25T06:38:13.913Z,20.85
2017-01-25T06:39:23.375Z,20.94
2017-01-25T06:40:32.840Z,20.95
2017-01-25T06:41:42.266Z,20.95
2017-01-25T06:42:51.729Z,20.95
2017-01-25T06:44:01.194Z,21.09
2017-01-25T06:45:10.274Z,21.09
2017-01-25T06:46:19.736Z,21.04
2017-01-25T06:47:28.982Z,21.1
2017-01-25T06:48:37.665Z,21.09
2017-01-25T06:49:46.362Z,21.13
2017-01-25T06:50:55.083Z,21.04
2017-01-25T06:52:03.777Z,21.13
2017-01-25T06:53:12.614Z,21.09
2017-01-25T06:54:22.079Z,21.14
2017-01-25T06:55:30.776Z,21.16
2017-01-25T06:56:39.846Z,21.19
2017-01-25T06:57:48.518Z,21.14
2017-01-25T06:58:57.304Z,21.14
2017-01-25T07:00:06.000Z,21.1
2017-01-25T07:01:14.688Z,21.09
2017-01-25T07:02:23.372Z,21.14
2017-01-25T07:03:33.231Z,21.12
2017-01-25T07:04:42.604Z,21.07
2017-01-25T07:05:51.676Z,21.03
2017-01-25T07:07:01.174Z,21.06
2017-01-25T07:08:10.240Z,20.97
2017-01-25T07:09:18.955Z,20.99
2017-01-25T07:10:28.570Z,20.95
2017-01-25T07:11:37.640Z,20.97
2017-01-25T07:12:46.762Z,20.97
2017-01-25T07:13:56.225Z,20.97
2017-01-25T07:15:06.098Z,20.89
2017-01-25T07:16:15.479Z,20.91
2017-01-25T07:17:24.944Z,20.95
2017-01-25T07:18:33.682Z,20.82
2017-01-25T07:19:42.799Z,20.84
2017-01-25T07:20:51.929Z,20.92
2017-01-25T07:22:01.184Z,20.8
2017-01-25T07:23:09.991Z,20.74
2017-01-25T07:24:19.163Z,20.7
2017-01-25T07:25:28.746Z,20.7
2017-01-25T07:26:37.475Z,20.66
2017-01-25T07:27:46.613Z,20.62
2017-01-25T07:28:55.773Z,20.67
2017-01-25T07:30:04.979Z,20.59
2017-01-25T07:31:14.153Z,20.54
2017-01-25T07:32:23.663Z,20.54
2017-01-25T07:33:33.050Z,20.48
2017-01-25T07:34:41.806Z,20.43
2017-01-25T07:35:51.028Z,20.36
2017-01-25T07:37:00.137Z,20.39
2017-01-25T07:38:08.872Z,20.39
2017-01-25T07:39:18.236Z,20.31
2017-01-25T07:40:27.361Z,20.17
2017-01-25T07:41:36.092Z,20.21
2017-01-25T07:42:45.600Z,20.24
2017-01-25T07:43:55.540Z,20.21
2017-01-25T07:45:04.795Z,20.13
2017-01-25T07:46:14.338Z,20.13
2017-01-25T07:47:23.519Z,20.08
2017-01-25T07:48:32.704Z,20.01
2017-01-25T07:49:41.851Z,19.99
2017-01-25T07:50:51.293Z,20.06
2017-01-25T07:52:01.202Z,19.95
2017-01-25T07:53:10.314Z,20.06
2017-01-25T07:54:19.850Z,19.84
2017-01-25T07:55:28.659Z,19.88
2017-01-25T07:56:38.575Z,19.86
2017-01-25T07:57:48.098Z,19.8
2017-01-25T07:58:57.216Z,19.83
2017-01-25T08:00:07.154Z,19.84
2017-01-25T08:01:16.305Z,19.81
2017-01-25T08:02:25.674Z,19.73
2017-01-25T08:03:34.482Z,19.71
2017-01-25T08:04:43.222Z,19.77
2017-01-25T08:05:52.711Z,19.63
2017-01-25T08:07:01.422Z,19.62
2017-01-25T08:08:10.639Z,19.68
2017-01-25T08:09:19.822Z,19.74
2017-01-25T08:10:28.940Z,19.55
2017-01-25T08:11:38.070Z,19.58
2017-01-25T08:12:46.811Z,19.66
2017-01-25T08:13:56.059Z,19.62
2017-01-25T08:15:05.148Z,19.58
2017-01-25T08:16:14.227Z,19.56
2017-01-25T08:17:23.327Z,19.5
2017-01-25T08:18:32.906Z,19.54
2017-01-25T08:19:42.552Z,19.5
2017-01-25T08:20:52.069Z,19.47
2017-01-25T08:22:01.560Z,19.51
2017-01-25T08:23:11.086Z,19.43
2017-01-25T08:24:20.425Z,19.43
2017-01-25T08:25:29.399Z,19.46
2017-01-25T08:26:38.568Z,19.44
2017-01-25T08:27:47.791Z,19.43
2017-01-25T08:28:57.298Z,19.47
2017-01-25T08:30:06.431Z,19.46
2017-01-25T08:31:15.448Z,19.48
2017-01-25T08:32:24.218Z,19.39
2017-01-25T08:33:33.360Z,19.37
2017-01-25T08:34:42.495Z,19.39
2017-01-25T08:35:51.600Z,19.37
2017-01-25T08:37:00.685Z,19.36
2017-01-25T08:38:09.544Z,19.29
2017-01-25T08:39:18.398Z,19.4
2017-01-25T08:40:28.008Z,19.29
2017-01-25T08:41:37.277Z,19.32
2017-01-25T08:42:46.200Z,19.31
2017-01-25T08:43:54.976Z,19.28
2017-01-25T08:45:04.151Z,19.26
2017-01-25T08:46:13.293Z,19.29
2017-01-25T08:47:22.046Z,19.23
2017-01-25T08:48:31.140Z,19.26
2017-01-25T08:49:40.276Z,19.31
2017-01-25T08:50:49.027Z,19.25
2017-01-25T08:51:58.217Z,19.32
2017-01-25T08:53:06.980Z,19.23
2017-01-25T08:54:15.915Z,19.25
2017-01-25T08:55:24.623Z,19.22
2017-01-25T08:56:33.782Z,19.21
2017-01-25T08:57:42.927Z,19.22
2017-01-25T08:58:52.491Z,19.28
2017-01-25T09:00:01.591Z,19.23
2017-01-25T09:01:11.875Z,19.23
2017-01-25T09:02:20.624Z,19.11
2017-01-25T09:03:30.932Z,19.21
2017-01-25T09:04:40.108Z,19.16
2017-01-25T09:05:49.784Z,19.14
2017-01-25T09:06:58.925Z,19.16
2017-01-25T09:08:08.071Z,19.13
2017-01-25T09:09:17.558Z,19.11
2017-01-25T09:10:26.694Z,19.19
2017-01-25T09:11:35.693Z,19.19
2017-01-25T09:12:44.853Z,19.16
2017-01-25T09:13:53.584Z,19.07
2017-01-25T09:15:03.109Z,19.11
2017-01-25T09:16:13.021Z,19.16
2017-01-25T09:17:23.270Z,19.14
2017-01-25T09:18:31.986Z,19.14
2017-01-25T09:19:41.486Z,19.11
2017-01-25T09:20:50.616Z,19.08
2017-01-25T09:21:59.737Z,19.1
2017-01-25T09:23:09.244Z,19.11
2017-01-25T09:24:18.378Z,19.08
2017-01-25T09:25:27.877Z,19.1
2017-01-25T09:26:37.043Z,19.08
2017-01-25T09:27:46.150Z,19.06
2017-01-25T09:28:55.436Z,19.1
2017-01-25T09:30:04.628Z,19.07
2017-01-25T09:31:13.809Z,19.06
2017-01-25T09:32:22.956Z,19.07
2017-01-25T09:33:32.119Z,19.08
2017-01-25T09:34:41.363Z,19.1
2017-01-25T09:35:50.870Z,19.07
2017-01-25T09:37:00.013Z,19.1
2017-01-25T09:38:09.940Z,19.13
2017-01-25T09:39:19.060Z,19.1
2017-01-25T09:40:28.890Z,19.02
2017-01-25T09:41:38.488Z,19.1
2017-01-25T09:42:47.225Z,19.07
2017-01-25T09:43:56.766Z,19.04
2017-01-25T09:45:05.928Z,19.1
2017-01-25T09:46:16.055Z,19.08
2017-01-25T09:47:25.332Z,19.08
2017-01-25T09:48:34.860Z,19.02
2017-01-25T09:49:44.815Z,19.04
2017-01-25T09:50:53.553Z,19.06
2017-01-25T09:52:03.167Z,19.07
2017-01-25T09:53:12.693Z,19.07
2017-01-25T09:54:21.459Z,18.98
2017-01-25T09:55:30.608Z,18.98
2017-01-25T09:56:39.744Z,19.06
2017-01-25T09:57:49.931Z,19.02
2017-01-25T09:58:58.625Z,19.06
2017-01-25T10:00:07.319Z,19
2017-01-25T10:01:16.433Z,19.02
2017-01-25T10:02:25.968Z,19.02
2017-01-25T10:03:35.638Z,19.04
2017-01-25T10:04:44.825Z,18.95
2017-01-25T10:05:54.020Z,18.95
2017-01-25T10:07:03.933Z,19.08
2017-01-25T10:08:13.510Z,19
2017-01-25T10:09:22.949Z,19.04
2017-01-25T10:10:31.697Z,18.95
2017-01-25T10:11:40.433Z,18.95
2017-01-25T10:12:49.194Z,18.99
2017-01-25T10:13:57.977Z,18.95
2017-01-25T10:15:07.455Z,18.98
2017-01-25T10:16:17.011Z,19.08
2017-01-25T10:17:25.751Z,19.04
2017-01-25T10:18:34.496Z,18.98
2017-01-25T10:19:43.228Z,19.04
2017-01-25T10:20:52.893Z,18.98
2017-01-25T10:22:02.426Z,18.95
2017-01-25T10:23:11.165Z,19.07
2017-01-25T10:24:20.685Z,19.04
2017-01-25T10:25:30.907Z,19.04
2017-01-25T10:26:40.215Z,19
2017-01-25T10:27:49.724Z,19.02
2017-01-25T10:28:59.265Z,19.02
2017-01-25T10:30:08.077Z,19.04
2017-01-25T10:31:17.223Z,19.07
2017-01-25T10:32:26.716Z,19
2017-01-25T10:33:35.485Z,18.95
2017-01-25T10:34:44.280Z,19.08
2017-01-25T10:35:53.071Z,18.95
2017-01-25T10:37:02.284Z,19.08
2017-01-25T10:38:11.742Z,18.98
2017-01-25T10:39:20.496Z,19
2017-01-25T10:40:29.607Z,19.06
2017-01-25T10:41:38.328Z,19.1
2017-01-25T10:42:47.039Z,19.07
2017-01-25T10:43:56.116Z,19.04
2017-01-25T10:45:05.623Z,19.1
2017-01-25T10:46:14.815Z,19.06
2017-01-25T10:47:23.996Z,19.02
2017-01-25T10:48:33.131Z,19.02
2017-01-25T10:49:42.183Z,19.04
2017-01-25T10:50:51.285Z,19.07
2017-01-25T10:52:00.815Z,19
2017-01-25T10:53:09.945Z,19.08
2017-01-25T10:54:19.127Z,19.07
2017-01-25T10:55:28.597Z,19.08
2017-01-25T10:56:38.116Z,19.14
2017-01-25T10:57:47.263Z,19
2017-01-25T10:58:57.241Z,19.02
2017-01-25T11:00:06.349Z,19
2017-01-25T11:01:15.773Z,19.02
2017-01-25T11:02:24.554Z,19.06
2017-01-25T11:03:33.307Z,19.04
2017-01-25T11:04:42.791Z,18.98
2017-01-25T11:05:51.925Z,19
2017-01-25T11:07:01.803Z,19
2017-01-25T11:08:11.029Z,19.07
2017-01-25T11:09:20.214Z,19.06
2017-01-25T11:10:29.325Z,19.07
2017-01-25T11:11:38.076Z,19.07
2017-01-25T11:12:47.503Z,18.99
2017-01-25T11:13:57.436Z,19.11
2017-01-25T11:15:06.955Z,19.06
2017-01-25T11:16:16.566Z,19.04
2017-01-25T11:17:25.673Z,19
2017-01-25T11:18:35.574Z,19.1
2017-01-25T11:19:44.359Z,19.07
2017-01-25T11:20:53.911Z,19.07
2017-01-25T11:22:03.458Z,19.08
2017-01-25T11:23:12.249Z,19.02
2017-01-25T11:24:21.823Z,19.04
2017-01-25T11:25:30.731Z,19.13
2017-01-25T11:26:40.033Z,19.18
2017-01-25T11:27:49.543Z,19.07
2017-01-25T11:28:59.272Z,19.11
2017-01-25T11:30:08.739Z,19.13
2017-01-25T11:31:18.661Z,19.1
2017-01-25T11:32:28.151Z,19.06
2017-01-25T11:33:36.911Z,19.11
2017-01-25T11:34:45.643Z,19.08
2017-01-25T11:35:55.730Z,19.13
2017-01-25T11:37:05.297Z,19.08
2017-01-25T11:38:14.465Z,19.11
2017-01-25T11:39:23.621Z,19.13
2017-01-25T11:40:32.767Z,19.13
2017-01-25T11:41:42.827Z,19.14
2017-01-25T11:42:52.369Z,19.11
2017-01-25T11:44:01.513Z,19.14
2017-01-25T11:45:11.045Z,19.11
2017-01-25T11:46:19.820Z,19.1
2017-01-25T11:47:29.575Z,19.11
2017-01-25T11:48:39.141Z,19.13
2017-01-25T11:49:48.244Z,19.13
2017-01-25T11:50:57.774Z,19.14
2017-01-25T11:52:07.323Z,19.16
2017-01-25T11:53:16.940Z,19.16
2017-01-25T11:54:26.454Z,19.04
2017-01-25T11:55:35.573Z,19.11
2017-01-25T11:56:44.698Z,19.13
2017-01-25T11:57:53.850Z,19.14
2017-01-25T11:59:03.305Z,19.16
2017-01-25T12:00:12.387Z,19.14
2017-01-25T12:01:21.518Z,19.13
2017-01-25T12:02:31.054Z,19.11
2017-01-25T12:03:39.803Z,19.13
2017-01-25T12:04:48.696Z,19.11
2017-01-25T12:05:58.563Z,19.14
2017-01-25T12:07:08.121Z,19.11
2017-01-25T12:08:17.641Z,19.07
2017-01-25T12:09:26.374Z,19.08
2017-01-25T12:10:35.594Z,19.16
2017-01-25T12:11:45.126Z,19.1
2017-01-25T12:12:54.693Z,19.08
2017-01-25T12:14:04.181Z,19.16
2017-01-25T12:15:13.330Z,19.08
2017-01-25T12:16:22.940Z,19.08
2017-01-25T12:17:31.680Z,19.08
2017-01-25T12:18:40.862Z,19.06
2017-01-25T12:19:50.006Z,19.13
2017-01-25T12:20:59.509Z,19.08
2017-01-25T12:22:08.769Z,19.07
2017-01-25T12:23:17.919Z,19.1
2017-01-25T12:24:27.034Z,19.11
2017-01-25T12:25:36.156Z,19.07
2017-01-25T12:26:44.902Z,19.08
2017-01-25T12:27:54.196Z,19.1
2017-01-25T12:29:03.696Z,19.08
2017-01-25T12:30:12.831Z,19.08
2017-01-25T12:31:22.362Z,19.06
2017-01-25T12:32:31.482Z,19.06
2017-01-25T12:33:40.336Z,18.99
2017-01-25T12:34:49.452Z,19.04
2017-01-25T12:35:58.957Z,18.99
2017-01-25T12:37:08.074Z,19.07
2017-01-25T12:38:17.566Z,18.99
2017-01-25T12:39:26.407Z,18.95
2017-01-25T12:40:35.540Z,19
2017-01-25T12:41:44.280Z,19.04
2017-01-25T12:42:53.034Z,18.95
2017-01-25T12:44:02.824Z,19.06
2017-01-25T12:45:13.096Z,18.99
2017-01-25T12:46:21.830Z,19.06
2017-01-25T12:47:30.961Z,19.04
2017-01-25T12:48:39.655Z,18.98
2017-01-25T12:49:48.757Z,18.92
2017-01-25T12:50:57.821Z,18.99
2017-01-25T12:52:07.011Z,18.99
2017-01-25T12:53:16.156Z,18.98
2017-01-25T12:54:25.280Z,19
2017-01-25T12:55:34.810Z,18.95
2017-01-25T12:56:43.860Z,18.95
2017-01-25T12:57:53.439Z,19
2017-01-25T12:59:02.610Z,18.99
2017-01-25T13:00:11.730Z,18.95
2017-01-25T13:01:20.526Z,18.92
2017-01-25T13:02:29.725Z,18.95
2017-01-25T13:03:39.648Z,18.92
2017-01-25T13:04:49.155Z,18.94
2017-01-25T13:05:58.694Z,18.98
2017-01-25T13:07:07.810Z,18.94
2017-01-25T13:08:17.171Z,18.98
2017-01-25T13:09:25.977Z,18.98
2017-01-25T13:10:35.509Z,19
2017-01-25T13:11:44.984Z,18.98
2017-01-25T13:12:54.877Z,18.95
2017-01-25T13:14:04.332Z,18.95
2017-01-25T13:15:13.484Z,18.94
2017-01-25T13:16:22.589Z,18.98
2017-01-25T13:17:32.119Z,18.94
2017-01-25T13:18:41.299Z,18.85
2017-01-25T13:19:50.718Z,18.92
2017-01-25T13:20:59.823Z,18.87
2017-01-25T13:22:09.737Z,18.84
2017-01-25T13:23:18.607Z,18.91
2017-01-25T13:24:28.132Z,18.84
2017-01-25T13:25:37.925Z,18.9
2017-01-25T13:26:47.057Z,18.94
2017-01-25T13:27:56.184Z,18.91
2017-01-25T13:29:04.949Z,18.84
2017-01-25T13:30:14.324Z,18.9
2017-01-25T13:31:23.523Z,18.91
2017-01-25T13:32:32.279Z,18.91
2017-01-25T13:33:41.388Z,18.94
2017-01-25T13:34:50.537Z,18.84
2017-01-25T13:36:00.083Z,18.88
2017-01-25T13:37:09.914Z,18.85
2017-01-25T13:38:19.059Z,18.88
2017-01-25T13:39:28.556Z,18.87
2017-01-25T13:40:38.455Z,18.87
2017-01-25T13:41:47.561Z,18.87
2017-01-25T13:42:57.034Z,18.88
2017-01-25T13:44:05.744Z,18.88
2017-01-25T13:45:14.845Z,18.87
2017-01-25T13:46:23.543Z,18.85
2017-01-25T13:47:32.635Z,18.88
2017-01-25T13:48:42.093Z,18.84
2017-01-25T13:49:50.798Z,18.84
2017-01-25T13:51:00.360Z,18.9
2017-01-25T13:52:09.094Z,18.84
2017-01-25T13:53:18.235Z,18.87
2017-01-25T13:54:27.678Z,18.82
2017-01-25T13:55:36.768Z,18.81
2017-01-25T13:56:45.459Z,18.78
2017-01-25T13:57:54.204Z,18.81
2017-01-25T13:59:03.304Z,18.81
2017-01-25T14:00:12.532Z,18.84
2017-01-25T14:01:21.261Z,18.78
2017-01-25T14:02:30.357Z,18.78
2017-01-25T14:03:39.827Z,18.8
2017-01-25T14:04:48.538Z,18.75
2017-01-25T14:05:57.711Z,18.84
2017-01-25T14:07:06.416Z,18.78
2017-01-25T14:08:15.533Z,18.82
2017-01-25T14:09:24.613Z,18.78
2017-01-25T14:10:34.027Z,18.81
2017-01-25T14:11:43.503Z,18.8
2017-01-25T14:12:52.595Z,18.78
2017-01-25T14:14:01.352Z,18.78
2017-01-25T14:15:10.857Z,18.82
2017-01-25T14:16:19.579Z,18.8
2017-01-25T14:17:28.820Z,18.8
2017-01-25T14:18:37.633Z,18.78
2017-01-25T14:19:46.791Z,18.76
2017-01-25T14:20:55.858Z,18.8
2017-01-25T14:22:05.343Z,18.8
2017-01-25T14:23:14.980Z,18.75
2017-01-25T14:24:24.070Z,18.75
2017-01-25T14:25:32.805Z,18.76
2017-01-25T14:26:41.552Z,18.8
2017-01-25T14:27:50.288Z,18.78
2017-01-25T14:28:59.554Z,18.81
2017-01-25T14:30:08.349Z,18.8
2017-01-25T14:31:17.107Z,18.78
2017-01-25T14:32:25.833Z,18.75
2017-01-25T14:33:35.009Z,18.76
2017-01-25T14:34:44.829Z,18.8
2017-01-25T14:35:53.561Z,18.78
2017-01-25T14:37:02.693Z,18.8
2017-01-25T14:38:11.404Z,18.82
2017-01-25T14:39:20.923Z,18.76
2017-01-25T14:40:29.785Z,18.8
2017-01-25T14:41:38.505Z,18.82
2017-01-25T14:42:47.247Z,18.81
2017-01-25T14:43:56.360Z,18.82
2017-01-25T14:45:05.477Z,18.78
2017-01-25T14:46:14.760Z,18.76
2017-01-25T14:47:24.281Z,18.7
2017-01-25T14:48:33.359Z,18.75
2017-01-25T14:49:42.072Z,18.7
2017-01-25T14:50:50.778Z,18.7
2017-01-25T14:52:00.634Z,18.67
2017-01-25T14:53:10.110Z,18.69
2017-01-25T14:54:19.677Z,18.76
2017-01-25T14:55:29.211Z,18.73
2017-01-25T14:56:38.343Z,18.7